createdAt,value
2019-04-05T00:00:54.376Z,89.96
2019-04-05T00:03:22.834Z,89.94
2019-04-05T00:05:51.378Z,90.14
2019-04-05T00:08:19.834Z,90.09
2019-04-05T00:10:48.265Z,90.16
2019-04-05T00:13:16.808Z,90.19
2019-04-05T00:15:46.014Z,90.03
2019-04-05T00:18:14.460Z,90.17
2019-04-05T00:20:42.919Z,90.09
2019-04-05T00:23:11.449Z,90.02
2019-04-05T00:25:39.875Z,89.89
2019-04-05T00:28:08.337Z,90.01
2019-04-05T00:30:36.799Z,90.11
2019-04-05T00:33:05.319Z,90.06
2019-04-05T00:35:33.756Z,90.22
2019-04-05T00:38:02.230Z,90.24
2019-04-05T00:40:30.691Z,90.13
2019-04-05T00:42:59.217Z,90.23
2019-04-05T00:45:28.761Z,90.18
2019-04-05T00:47:58.534Z,89.98
2019-04-05T00:50:27.167Z,89.99
2019-04-05T00:52:55.587Z,90.16
2019-04-05T00:55:24.034Z,90.26
2019-04-05T00:57:52.773Z,90.35
2019-04-05T01:00:21.371Z,90.11
2019-04-05T01:02:49.823Z,90.44
2019-04-05T01:05:18.356Z,90.55
2019-04-05T01:07:46.862Z,90.74
2019-04-05T01:10:16.452Z,90.69
2019-04-05T01:12:46.389Z,90.74
2019-04-05T01:15:15.779Z,90.85
2019-04-05T01:17:44.298Z,90.93
2019-04-05T01:20:14.195Z,91.16
2019-04-05T01:22:44.477Z,91.08
2019-04-05T01:25:13.016Z,91.21
2019-04-05T01:27:41.899Z,91.16
2019-04-05T01:30:12.938Z,91.15
2019-04-05T01:32:41.469Z,91.14
2019-04-05T01:35:09.974Z,91.05
2019-04-05T01:37:38.646Z,91.11
2019-04-05T01:40:08.661Z,91.03
2019-04-05T01:42:38.271Z,90.84
2019-04-05T01:45:10.257Z,90.83
2019-04-05T01:47:38.955Z,90.81
2019-04-05T01:50:10.440Z,90.83
2019-04-05T01:52:40.031Z,90.88
2019-04-05T01:55:09.738Z,90.50
2019-04-05T01:57:38.204Z,90.42
2019-04-05T02:00:10.050Z,90.57
2019-04-05T02:02:38.664Z,90.72
2019-04-05T02:05:08.958Z,90.68
2019-04-05T02:07:38.241Z,90.65
2019-04-05T02:10:11.940Z,90.76
2019-04-05T02:12:40.832Z,91.01
2019-04-05T02:15:12.321Z,91.10
2019-04-05T02:17:40.912Z,91.05
2019-04-05T02:20:09.700Z,91.00
2019-04-05T02:22:38.303Z,90.80
2019-04-05T02:25:07.265Z,90.72
2019-04-05T02:27:35.860Z,90.52
2019-04-05T02:30:06.457Z,90.53
2019-04-05T02:32:35.037Z,90.50
2019-04-05T02:35:04.422Z,90.46
2019-04-05T02:37:32.969Z,90.69
2019-04-05T02:40:01.476Z,90.79
2019-04-05T02:42:30.585Z,90.92
2019-04-05T02:44:59.700Z,91.11
2019-04-05T02:47:28.600Z,91.21
2019-04-05T02:49:58.512Z,91.36
2019-04-05T02:52:28.119Z,91.45
2019-04-05T02:54:57.122Z,91.40
2019-04-05T02:57:27.333Z,91.34
2019-04-05T02:59:56.313Z,91.49
2019-04-05T03:02:25.501Z,91.68
2019-04-05T03:04:54.140Z,91.76
2019-04-05T03:07:22.720Z,91.86
2019-04-05T03:09:51.955Z,91.75
2019-04-05T03:12:21.232Z,91.81
2019-04-05T03:14:51.231Z,91.82
2019-04-05T03:17:21.443Z,91.75
2019-04-05T03:19:52.882Z,91.80
2019-04-05T03:22:23.471Z,91.92
2019-04-05T03:24:52.370Z,91.79
2019-04-05T03:27:23.868Z,91.58
2019-04-05T03:29:53.179Z,91.57
2019-04-05T03:32:22.476Z,91.25
2019-04-05T03:34:51.014Z,90.64
2019-04-05T03:37:19.734Z,90.32
2019-04-05T03:39:48.854Z,90.31
2019-04-05T03:42:17.457Z,90.17
2019-04-05T03:44:47.174Z,90.32
2019-04-05T03:47:16.397Z,90.42
2019-04-05T03:49:46.657Z,90.34
2019-04-05T03:52:15.190Z,90.11
2019-04-05T03:54:43.907Z,89.95
2019-04-05T03:57:12.510Z,89.99
2019-04-05T03:59:41.196Z,89.93
2019-04-05T04:02:10.110Z,90.22
2019-04-05T04:04:38.712Z,90.26
2019-04-05T04:07:07.507Z,90.02
2019-04-05T04:09:36.138Z,90.10
2019-04-05T04:12:05.122Z,89.71
2019-04-05T04:14:33.643Z,89.98
2019-04-05T04:17:12.165Z,90.05
2019-04-05T04:19:33.488Z,89.32
2019-04-05T04:22:20.014Z,88.03
2019-04-05T04:24:48.824Z,87.33
2019-04-05T04:27:17.826Z,87.31
2019-04-05T04:29:46.446Z,86.28
2019-04-05T04:32:15.371Z,85.81
2019-04-05T04:34:44.005Z,86.54
2019-04-05T04:37:12.635Z,86.54
2019-04-05T04:39:41.709Z,86.74
2019-04-05T04:42:11.104Z,86.39
2019-04-05T04:44:40.127Z,86.42
2019-04-05T04:47:08.750Z,86.52
2019-04-05T04:49:37.461Z,86.49
2019-04-05T04:52:06.377Z,86.49
2019-04-05T04:54:35.071Z,86.32
2019-04-05T04:57:03.684Z,86.25
2019-04-05T04:59:32.269Z,86.24
2019-04-05T05:02:00.818Z,85.70
2019-04-05T05:04:30.010Z,85.93
2019-04-05T05:06:58.536Z,85.69
2019-04-05T05:09:27.468Z,85.81
2019-04-05T05:11:56.097Z,85.87
2019-04-05T05:14:24.926Z,85.89
2019-04-05T05:16:53.465Z,85.64
2019-04-05T05:19:22.039Z,85.66
2019-04-05T05:21:50.588Z,85.32
2019-04-05T05:24:19.162Z,85.35
2019-04-05T05:26:47.807Z,84.86
2019-04-05T05:29:16.347Z,84.45
2019-04-05T05:31:44.805Z,83.89
2019-04-05T05:34:13.522Z,83.64
2019-04-05T05:36:42.198Z,83.82
2019-04-05T05:39:10.928Z,84.05
2019-04-05T05:41:39.484Z,84.11
2019-04-05T05:44:08.119Z,83.25
2019-04-05T05:46:36.579Z,82.83
2019-04-05T05:49:05.398Z,83.38
2019-04-05T05:51:33.824Z,83.49
2019-04-05T05:54:02.250Z,83.78
2019-04-05T05:56:30.700Z,83.74
2019-04-05T05:58:59.597Z,83.85
2019-04-05T06:01:28.554Z,83.72
2019-04-05T06:03:57.029Z,83.58
2019-04-05T06:06:25.484Z,83.39
2019-04-05T06:08:53.934Z,82.74
2019-04-05T06:11:22.388Z,82.76
2019-04-05T06:13:50.856Z,83.37
2019-04-05T06:16:19.425Z,83.32
2019-04-05T06:18:48.667Z,82.78
2019-04-05T06:21:17.392Z,82.49
2019-04-05T06:23:46.219Z,82.47
2019-04-05T06:26:14.658Z,82.43
2019-04-05T06:28:43.177Z,81.61
2019-04-05T06:31:11.755Z,82.03
2019-04-05T06:33:40.354Z,82.10
2019-04-05T06:36:08.894Z,81.85
2019-04-05T06:38:37.415Z,82.01
2019-04-05T06:41:05.875Z,81.74
2019-04-05T06:43:34.330Z,81.68
2019-04-05T06:46:03.023Z,81.24
2019-04-05T06:48:31.743Z,81.91
2019-04-05T06:51:00.253Z,82.66
2019-04-05T06:53:28.682Z,81.29
2019-04-05T06:55:59.544Z,81.90
2019-04-05T06:58:29.010Z,80.40
2019-04-05T07:00:57.872Z,79.83
2019-04-05T07:03:26.647Z,81.16
2019-04-05T07:05:55.122Z,82.09
2019-04-05T07:08:23.710Z,81.73
2019-04-05T07:10:52.171Z,81.16
2019-04-05T07:13:20.689Z,80.45
2019-04-05T07:15:49.196Z,80.69
2019-04-05T07:18:17.750Z,80.55
2019-04-05T07:20:46.263Z,80.53
2019-04-05T07:23:14.760Z,80.69
2019-04-05T07:25:43.271Z,81.69
2019-04-05T07:28:11.761Z,82.06
2019-04-05T07:30:40.250Z,82.43
2019-04-05T07:33:08.753Z,82.68
2019-04-05T07:35:37.577Z,82.56
2019-04-05T07:38:06.126Z,82.26
2019-04-05T07:40:34.706Z,81.08
2019-04-05T07:43:03.238Z,80.75
2019-04-05T07:45:31.719Z,80.21
2019-04-05T07:48:00.205Z,79.09
2019-04-05T07:50:28.709Z,79.19
2019-04-05T07:52:57.197Z,79.65
2019-04-05T07:55:25.691Z,79.86
2019-04-05T07:57:54.285Z,80.98
2019-04-05T08:00:41.274Z,80.42
2019-04-05T08:03:09.808Z,80.88
2019-04-05T08:05:38.539Z,81.24
2019-04-05T08:08:10.096Z,81.91
2019-04-05T08:10:38.929Z,79.96
2019-04-05T08:13:07.923Z,79.52
2019-04-05T08:15:36.398Z,78.17
2019-04-05T08:18:05.056Z,74.54
2019-04-05T08:20:33.552Z,70.00
2019-04-05T08:23:02.040Z,66.53
2019-04-05T08:25:30.537Z,65.71
2019-04-05T08:27:59.059Z,66.65
2019-04-05T08:30:27.574Z,65.59
2019-04-05T08:32:56.060Z,65.11
2019-04-05T08:35:24.546Z,65.25
2019-04-05T08:37:53.087Z,62.50
2019-04-05T08:40:21.838Z,65.13
2019-04-05T08:42:50.297Z,63.21
2019-04-05T08:45:18.952Z,61.27
2019-04-05T08:47:47.436Z,60.23
2019-04-05T08:50:16.082Z,63.28
2019-04-05T08:52:44.577Z,61.75
2019-04-05T08:55:13.124Z,62.27
2019-04-05T08:57:41.644Z,63.64
2019-04-05T09:00:11.667Z,63.14
2019-04-05T09:02:40.242Z,60.78
2019-04-05T09:05:08.865Z,63.59
2019-04-05T09:07:37.349Z,61.63
2019-04-05T09:10:07.086Z,62.65
2019-04-05T09:12:35.576Z,64.29
2019-04-05T09:15:05.609Z,64.38
2019-04-05T09:17:34.114Z,62.69
2019-04-05T09:20:02.606Z,64.13
2019-04-05T09:22:31.102Z,64.26
2019-04-05T09:24:59.610Z,63.33
2019-04-05T09:27:28.311Z,64.15
2019-04-05T09:29:56.758Z,62.60
2019-04-05T09:32:25.249Z,63.12
2019-04-05T09:34:53.808Z,62.26
2019-04-05T09:37:22.569Z,61.00
2019-04-05T09:39:51.199Z,61.34
2019-04-05T09:42:19.699Z,61.90
2019-04-05T09:44:48.176Z,56.23
2019-04-05T09:47:16.777Z,55.64
2019-04-05T09:49:45.288Z,56.47
2019-04-05T09:52:13.789Z,56.25
2019-04-05T09:54:42.300Z,55.11
2019-04-05T09:57:10.820Z,54.10
2019-04-05T09:59:39.337Z,52.60
2019-04-05T10:02:08.023Z,53.46
2019-04-05T10:04:36.640Z,53.00
2019-04-05T10:07:05.264Z,52.63
2019-04-05T10:09:33.769Z,51.31
2019-04-05T10:12:02.275Z,51.15
2019-04-05T10:14:35.880Z,51.34
2019-04-05T10:17:04.424Z,50.78
2019-04-05T10:19:32.923Z,52.97
2019-04-05T10:22:01.423Z,54.94
2019-04-05T10:24:32.933Z,56.10
2019-04-05T10:27:00.144Z,56.73
2019-04-05T10:29:28.681Z,56.22
2019-04-05T10:31:57.163Z,55.76
2019-04-05T10:34:25.659Z,53.55
2019-04-05T10:36:54.141Z,53.98
2019-04-05T10:39:22.669Z,52.13
2019-04-05T10:42:02.647Z,52.67
2019-04-05T10:44:21.556Z,52.79
2019-04-05T10:46:50.191Z,53.17
2019-04-05T10:49:18.691Z,52.13
2019-04-05T10:51:47.574Z,50.43
2019-04-05T10:54:16.032Z,50.80
2019-04-05T10:56:44.895Z,50.98
2019-04-05T10:59:13.461Z,51.15
2019-04-05T11:01:41.922Z,51.11
2019-04-05T11:04:10.794Z,50.24
2019-04-05T11:06:39.282Z,50.17
2019-04-05T11:09:08.582Z,48.01
2019-04-05T11:11:37.092Z,48.18
2019-04-05T11:14:13.733Z,50.25
2019-04-05T11:16:35.870Z,48.77
2019-04-05T11:19:04.553Z,50.36
2019-04-05T11:21:33.069Z,47.83
2019-04-05T11:24:01.592Z,48.13
2019-04-05T11:26:30.096Z,47.11
2019-04-05T11:28:58.945Z,47.61
2019-04-05T11:31:27.717Z,47.05
2019-04-05T11:33:56.303Z,47.17
2019-04-05T11:36:25.840Z,45.14
2019-04-05T11:38:54.597Z,45.63
2019-04-05T11:41:26.337Z,44.35
2019-04-05T11:44:00.381Z,46.03
2019-04-05T11:46:29.563Z,44.14
2019-04-05T11:48:59.184Z,43.39
2019-04-05T11:51:27.752Z,45.23
2019-04-05T11:53:56.271Z,44.96
2019-04-05T11:56:24.778Z,45.57
2019-04-05T11:58:53.281Z,44.36
2019-04-05T12:01:23.789Z,45.99
2019-04-05T12:03:52.398Z,45.24
2019-04-05T12:06:20.877Z,46.26
2019-04-05T12:08:49.647Z,48.73
2019-04-05T12:11:18.127Z,47.86
2019-04-05T12:13:47.750Z,49.37
2019-04-05T12:16:16.711Z,48.76
2019-04-05T12:18:45.163Z,47.45
2019-04-05T12:21:13.733Z,46.57
2019-04-05T12:23:42.606Z,45.52
2019-04-05T12:26:11.038Z,45.21
2019-04-05T12:28:39.541Z,47.26
2019-04-05T12:31:08.033Z,48.57
2019-04-05T12:33:36.530Z,48.19
2019-04-05T12:36:05.214Z,47.82
2019-04-05T12:38:34.269Z,45.30
2019-04-05T12:41:03.688Z,48.05
2019-04-05T12:43:32.443Z,48.15
2019-04-05T12:46:01.097Z,46.98
2019-04-05T12:48:30.056Z,45.49
2019-04-05T12:51:01.366Z,45.77
2019-04-05T12:53:28.999Z,49.22
2019-04-05T12:55:57.495Z,47.34
2019-04-05T12:58:26.774Z,47.61
2019-04-05T13:00:56.181Z,44.15
2019-04-05T13:03:25.869Z,42.74
2019-04-05T13:05:56.951Z,44.75
2019-04-05T13:08:24.591Z,44.45
2019-04-05T13:10:55.585Z,46.68
2019-04-05T13:13:26.433Z,48.15
2019-04-05T13:15:53.908Z,46.63
2019-04-05T13:18:25.168Z,44.89
2019-04-05T13:20:53.058Z,46.09
2019-04-05T13:23:21.529Z,46.95
2019-04-05T13:25:50.023Z,47.65
2019-04-05T13:28:18.946Z,47.75
2019-04-05T13:30:48.575Z,45.19
2019-04-05T13:33:17.955Z,44.51
2019-04-05T13:35:46.453Z,45.20
2019-04-05T13:38:14.947Z,45.20
2019-04-05T13:40:43.426Z,47.97
2019-04-05T13:43:11.935Z,49.53
2019-04-05T13:45:40.413Z,47.80
2019-04-05T13:48:09.683Z,45.69
2019-04-05T13:50:41.368Z,47.67
2019-04-05T13:53:11.143Z,46.56
2019-04-05T13:55:40.732Z,46.50
2019-04-05T13:58:11.170Z,44.40
2019-04-05T14:00:39.488Z,46.47
2019-04-05T14:03:08.299Z,46.37
2019-04-05T14:05:36.768Z,48.47
2019-04-05T14:08:10.345Z,48.30
2019-04-05T14:10:35.571Z,47.97
2019-04-05T14:13:04.596Z,50.80
2019-04-05T14:15:33.187Z,48.34
2019-04-05T14:18:01.714Z,48.91
2019-04-05T14:20:30.195Z,49.33
2019-04-05T14:22:58.700Z,49.94
2019-04-05T14:25:29.968Z,50.13
2019-04-05T14:27:57.423Z,49.88
2019-04-05T14:30:25.940Z,52.48
2019-04-05T14:32:55.741Z,53.60
2019-04-05T14:35:25.256Z,54.05
2019-04-05T14:37:54.593Z,53.51
2019-04-05T14:40:28.377Z,53.97
2019-04-05T14:42:55.090Z,51.84
2019-04-05T14:45:23.689Z,50.43
2019-04-05T14:47:52.183Z,51.89
2019-04-05T14:50:20.783Z,50.90
2019-04-05T14:52:49.715Z,50.05
2019-04-05T14:55:18.892Z,50.29
2019-04-05T14:57:47.426Z,48.95
2019-04-05T15:00:16.797Z,49.90
2019-04-05T15:02:45.667Z,49.42
2019-04-05T15:05:14.815Z,48.55
2019-04-05T15:07:43.304Z,49.44
2019-04-05T15:10:11.874Z,52.33
2019-04-05T15:12:40.392Z,54.53
2019-04-05T15:15:09.553Z,53.65
2019-04-05T15:17:47.673Z,55.66
2019-04-05T15:20:09.069Z,55.48
2019-04-05T15:22:41.508Z,55.35
2019-04-05T15:25:08.610Z,55.84
2019-04-05T15:27:37.182Z,57.33
2019-04-05T15:30:07.118Z,58.35
2019-04-05T15:32:37.295Z,61.46
2019-04-05T15:35:09.370Z,62.57
2019-04-05T15:37:38.093Z,62.20
2019-04-05T15:40:08.068Z,63.47
2019-04-05T15:42:36.554Z,63.28
2019-04-05T15:45:10.029Z,64.49
2019-04-05T15:47:38.794Z,63.69
2019-04-05T15:50:08.923Z,64.11
2019-04-05T15:52:37.403Z,63.47
2019-04-05T15:55:07.442Z,64.53
2019-04-05T15:57:39.199Z,65.46
2019-04-05T16:00:09.620Z,64.35
2019-04-05T16:02:38.170Z,65.21
2019-04-05T16:05:09.165Z,64.58
2019-04-05T16:07:37.704Z,64.54
2019-04-05T16:10:08.831Z,64.07
2019-04-05T16:12:37.376Z,65.98
2019-04-05T16:15:08.029Z,64.58
2019-04-05T16:17:36.584Z,64.41
2019-04-05T16:20:08.489Z,64.34
2019-04-05T16:22:36.968Z,65.28
2019-04-05T16:25:07.226Z,65.85
2019-04-05T16:27:35.761Z,65.94
2019-04-05T16:30:06.257Z,66.78
2019-04-05T16:32:34.724Z,67.36
2019-04-05T16:35:03.242Z,68.01
2019-04-05T16:37:31.704Z,68.43
2019-04-05T16:40:00.253Z,67.75
2019-04-05T16:42:28.744Z,68.58
2019-04-05T16:44:57.437Z,68.68
2019-04-05T16:47:25.992Z,68.61
2019-04-05T16:49:54.486Z,69.01
2019-04-05T16:52:22.973Z,69.06
2019-04-05T16:54:51.445Z,69.66
2019-04-05T16:57:19.939Z,70.47
2019-04-05T16:59:48.437Z,70.91
2019-04-05T17:02:16.904Z,72.11
2019-04-05T17:04:45.399Z,71.79
2019-04-05T17:07:13.877Z,72.36
2019-04-05T17:09:42.383Z,72.48
2019-04-05T17:12:10.883Z,72.87
2019-04-05T17:14:39.450Z,72.94
2019-04-05T17:17:07.922Z,73.41
2019-04-05T17:19:36.393Z,73.61
2019-04-05T17:22:04.946Z,73.85
2019-04-05T17:24:33.418Z,73.99
2019-04-05T17:27:01.890Z,74.86
2019-04-05T17:29:30.560Z,75.25
2019-04-05T17:31:59.103Z,75.60
2019-04-05T17:34:27.601Z,76.45
2019-04-05T17:36:56.131Z,77.01
2019-04-05T17:39:24.630Z,77.05
2019-04-05T17:41:53.109Z,77.29
2019-04-05T17:44:21.606Z,77.58
2019-04-05T17:46:50.094Z,77.73
2019-04-05T17:49:18.568Z,78.51
2019-04-05T17:51:47.396Z,78.46
2019-04-05T17:54:15.919Z,78.04
2019-04-05T17:56:44.574Z,77.80
2019-04-05T17:59:13.742Z,77.23
2019-04-05T18:01:42.224Z,77.67
2019-04-05T18:04:11.050Z,77.32
2019-04-05T18:06:39.545Z,77.41
2019-04-05T18:09:08.368Z,77.61
2019-04-05T18:11:37.265Z,77.63
2019-04-05T18:14:05.775Z,78.48
2019-04-05T18:16:34.359Z,78.92
2019-04-05T18:19:02.845Z,79.05
2019-04-05T18:21:31.339Z,79.26
2019-04-05T18:23:59.872Z,79.45
2019-04-05T18:26:28.331Z,79.44
2019-04-05T18:28:56.820Z,79.86
2019-04-05T18:31:25.340Z,80.07
2019-04-05T18:33:53.862Z,80.36
2019-04-05T18:36:22.364Z,80.39
2019-04-05T18:38:50.907Z,80.63
2019-04-05T18:41:19.402Z,79.64
2019-04-05T18:43:47.898Z,79.77
2019-04-05T18:46:16.439Z,80.52
2019-04-05T18:48:44.937Z,80.32
2019-04-05T18:51:13.505Z,80.65
2019-04-05T18:53:46.966Z,80.67
2019-04-05T18:56:16.330Z,80.66
2019-04-05T18:58:44.830Z,80.60
2019-04-05T19:01:13.336Z,81.00
2019-04-05T19:03:41.914Z,81.37
2019-04-05T19:06:10.475Z,81.38
2019-04-05T19:08:40.154Z,81.62
2019-04-05T19:11:08.876Z,81.10
2019-04-05T19:13:37.385Z,80.96
2019-04-05T19:16:06.054Z,81.01
2019-04-05T19:18:35.036Z,81.43
2019-04-05T19:21:03.806Z,81.77
2019-04-05T19:23:32.293Z,82.02
2019-04-05T19:26:00.807Z,81.26
2019-04-05T19:28:29.307Z,80.93
2019-04-05T19:50:57.867Z,81.24
2019-04-05T19:53:26.371Z,81.36
2019-04-05T19:55:54.871Z,81.96
2019-04-05T19:58:23.363Z,82.87
2019-04-05T20:00:51.868Z,82.79
2019-04-05T20:03:20.339Z,83.19
2019-04-05T20:05:48.879Z,83.21
2019-04-05T20:08:17.364Z,83.65
2019-04-05T20:10:46.020Z,83.80
2019-04-05T20:13:14.501Z,84.15
2019-04-05T20:15:43.141Z,84.12
2019-04-05T20:18:11.646Z,84.28
2019-04-05T20:20:40.143Z,84.56
2019-04-05T20:23:08.665Z,84.23
2019-04-05T20:25:37.172Z,83.76
2019-04-05T20:28:05.638Z,83.97
2019-04-05T20:30:34.152Z,83.92
2019-04-05T20:33:02.652Z,84.09
2019-04-05T20:35:31.208Z,84.34
2019-04-05T20:37:59.684Z,84.58
2019-04-05T20:40:28.276Z,84.42
2019-04-05T20:42:56.718Z,84.48
2019-04-05T20:45:25.229Z,84.50
2019-04-05T20:47:53.791Z,84.43
2019-04-05T20:50:22.343Z,84.37
2019-04-05T20:52:50.854Z,84.35
2019-04-05T20:55:19.340Z,84.16
2019-04-05T20:57:47.850Z,83.85
2019-04-05T21:00:16.943Z,83.14
2019-04-05T21:02:45.442Z,83.35
2019-04-05T21:05:20.632Z,83.36
2019-04-05T21:07:44.172Z,83.33
2019-04-05T21:10:12.790Z,83.33
2019-04-05T21:12:41.279Z,83.38
2019-04-05T21:15:09.860Z,83.37
2019-04-05T21:17:38.407Z,83.06
2019-04-05T21:20:07.544Z,83.39
2019-04-05T21:22:36.139Z,83.96
2019-04-05T21:25:06.266Z,84.52
2019-04-05T21:27:34.747Z,84.34
2019-04-05T21:30:03.435Z,84.40
2019-04-05T21:32:31.986Z,84.38
2019-04-05T21:35:00.454Z,84.35
2019-04-05T21:37:28.940Z,84.29
2019-04-05T21:39:57.520Z,83.74
2019-04-05T21:42:26.018Z,83.35
2019-04-05T21:44:54.575Z,83.26
2019-04-05T21:47:23.074Z,82.48
2019-04-05T21:49:51.577Z,82.64
2019-04-05T21:52:20.104Z,82.85
2019-04-05T21:54:48.625Z,83.09
2019-04-05T21:57:17.151Z,83.67
2019-04-05T21:59:45.666Z,83.92
2019-04-05T22:02:14.236Z,83.66
2019-04-05T22:04:42.750Z,83.94
2019-04-05T22:07:11.434Z,84.76
2019-04-05T22:09:39.916Z,85.34
2019-04-05T22:12:08.409Z,85.26
2019-04-05T22:14:36.926Z,85.28
2019-04-05T22:17:05.507Z,84.92
2019-04-05T22:19:34.007Z,84.75
2019-04-05T22:22:02.490Z,84.71
2019-04-05T22:24:31.018Z,84.76
2019-04-05T22:26:59.482Z,84.56
2019-04-05T22:29:27.981Z,83.87
2019-04-05T22:31:56.492Z,84.08
2019-04-05T22:34:25.041Z,84.66
2019-04-05T22:36:53.527Z,84.71
2019-04-05T22:39:22.041Z,85.02
2019-04-05T22:41:50.482Z,85.51
2019-04-05T22:44:18.972Z,85.82
2019-04-05T22:46:47.457Z,85.86
2019-04-05T22:49:15.958Z,85.93
2019-04-05T22:51:44.439Z,85.96
2019-04-05T22:54:28.145Z,85.65
2019-04-05T22:56:56.718Z,85.12
2019-04-05T22:59:25.237Z,85.16
2019-04-05T23:01:53.741Z,85.57
2019-04-05T23:04:22.258Z,85.95
2019-04-05T23:06:50.780Z,86.09
2019-04-05T23:09:19.275Z,86.22
2019-04-05T23:11:47.757Z,86.48
2019-04-05T23:14:47.511Z,86.58
2019-04-05T23:17:16.041Z,86.55
2019-04-05T23:19:44.498Z,86.33
2019-04-05T23:22:12.999Z,85.92
2019-04-05T23:24:41.536Z,85.82
2019-04-05T23:27:10.073Z,85.55
2019-04-05T23:29:38.584Z,85.62
2019-04-05T23:32:07.094Z,85.87
2019-04-05T23:34:35.658Z,85.83
2019-04-05T23:37:04.132Z,86.28
2019-04-05T23:39:32.659Z,85.91
2019-04-05T23:42:01.324Z,85.70
2019-04-05T23:44:29.841Z,85.78
2019-04-05T23:46:58.355Z,85.26
2019-04-05T23:49:26.832Z,85.86
2019-04-05T23:51:55.308Z,86.37
2019-04-05T23:54:23.819Z,86.46
2019-04-05T23:56:52.391Z,86.38
2019-04-05T23:59:20.841Z,86.68
